Time;durP1;ratioP1;P1;durP2;ratioP2;P2;SDS_P1;SDS_P2;PMS_P1;PMS_P2;Temp;Humidity;BMP_temperature;BMP_pressure;BME280_temperature;BME280_humidity;BME280_pressure;Samples;Min_cycle;Max_cycle;Signal;HPM_P1;HPM_P2
2022/09/05 00:02:11;;;;;;;;;;;20.30;76.50;;;;;;5065523;28;19913;-66
2022/09/05 00:04:42;;;;;;;;;;;20.30;76.60;;;;;;5065556;28;19982;-66
2022/09/05 00:07:08;;;;;;;;;;;20.30;76.60;;;;;;5064718;28;19921;-66
2022/09/05 00:09:36;;;;;;;;;;;20.30;76.40;;;;;;5065975;28;20776;-66
2022/09/05 00:12:04;;;;;;;;;;;20.30;76.70;;;;;;5065339;28;19915;-66
2022/09/05 00:14:36;;;;;;;;;;;20.20;76.70;;;;;;5065981;28;19912;-66
2022/09/05 00:17:01;;;;;;;;;;;20.20;76.80;;;;;;5065582;28;19933;-66
2022/09/05 00:19:26;;;;;;;;;;;20.20;76.90;;;;;;5047516;28;20694;-66
2022/09/05 00:22:02;;;;;;;;;;;20.20;77.00;;;;;;5046705;28;19923;-66
2022/09/05 00:24:42;;;;;;;;;;;20.20;77.10;;;;;;5065936;28;20385;-66
2022/09/05 00:27:28;;;;;;;;;;;20.10;77.10;;;;;;5065023;28;19940;-66
2022/09/05 00:30:03;;;;;;;;;;;20.10;77.00;;;;;;5060984;28;19919;-66
2022/09/05 00:32:31;;;;;;;;;;;20.10;77.30;;;;;;5065633;28;19924;-66
2022/09/05 00:34:57;;;;;;;;;;;20.10;77.40;;;;;;5065781;28;20745;-66
2022/09/05 00:37:39;;;;;;;;;;;20.10;77.30;;;;;;5064013;28;19966;-66
2022/09/05 00:40:11;;;;;;;;;;;20.10;77.40;;;;;;5067536;28;19939;-66
2022/09/05 00:42:37;;;;;;;;;;;20.00;77.40;;;;;;5069198;28;19912;-66
2022/09/05 00:45:04;;;;;;;;;;;20.00;77.40;;;;;;5070093;28;20133;-66
2022/09/05 00:47:48;;;;;;;;;;;20.00;77.60;;;;;;5069683;28;20369;-66
2022/09/05 00:50:24;;;;;;;;;;;20.00;77.50;;;;;;5067468;28;19959;-66
2022/09/05 00:52:49;;;;;;;;;;;20.00;77.50;;;;;;5069130;28;19908;-66
2022/09/05 00:55:27;;;;;;;;;;;19.90;77.50;;;;;;5069383;28;19916;-66
2022/09/05 00:57:58;;;;;;;;;;;19.90;77.60;;;;;;5069500;28;19913;-66
2022/09/05 01:00:33;;;;;;;;;;;19.90;77.70;;;;;;5068804;28;20010;-66
2022/09/05 01:03:08;;;;;;;;;;;19.80;77.90;;;;;;5068738;28;19912;-66
2022/09/05 01:05:39;;;;;;;;;;;19.90;77.90;;;;;;5069244;28;19916;-66
2022/09/05 01:08:05;;;;;;;;;;;19.80;77.90;;;;;;5069096;28;19947;-66
2022/09/05 01:10:57;;;;;;;;;;;19.80;78.60;;;;;;5069290;28;19912;-66
2022/09/05 01:13:28;;;;;;;;;;;19.80;78.00;;;;;;5046929;28;19912;-66
2022/09/05 01:15:54;;;;;;;;;;;19.80;78.10;;;;;;5050109;28;19934;-66
2022/09/05 01:18:38;;;;;;;;;;;19.80;78.10;;;;;;5068583;28;19917;-66
2022/09/05 01:21:06;;;;;;;;;;;19.80;78.10;;;;;;5068340;28;19920;-66
2022/09/05 01:23:40;;;;;;;;;;;19.70;78.10;;;;;;5068379;28;20479;-66
2022/09/05 01:26:06;;;;;;;;;;;19.70;78.90;;;;;;5068859;28;20482;-66
2022/09/05 01:28:34;;;;;;;;;;;19.70;78.30;;;;;;5069108;28;19990;-66
2022/09/05 01:31:18;;;;;;;;;;;19.70;78.40;;;;;;5068373;28;19913;-66
2022/09/05 01:33:56;;;;;;;;;;;19.70;78.30;;;;;;5072194;28;19938;-66
2022/09/05 01:36:31;;;;;;;;;;;19.70;79.00;;;;;;5063620;28;20005;-66
2022/09/05 01:39:06;;;;;;;;;;;19.60;78.30;;;;;;5068994;28;19913;-66
2022/09/05 01:41:50;;;;;;;;;;;19.60;78.50;;;;;;5068134;28;19912;-66
2022/09/05 01:44:25;;;;;;;;;;;19.60;78.50;;;;;;5068449;28;20042;-66
2022/09/05 01:46:56;;;;;;;;;;;19.60;78.50;;;;;;5062772;28;20373;-67
2022/09/05 01:49:31;;;;;;;;;;;19.60;78.60;;;;;;5062071;28;20391;-66
2022/09/05 01:52:15;;;;;;;;;;;19.60;78.50;;;;;;5066401;28;19912;-66
2022/09/05 01:54:46;;;;;;;;;;;19.60;78.60;;;;;;5068081;28;19913;-67
2022/09/05 01:57:17;;;;;;;;;;;19.50;78.60;;;;;;5067494;28;19916;-66
2022/09/05 01:59:43;;;;;;;;;;;19.60;78.70;;;;;;5067964;28;19916;-67
2022/09/05 02:02:27;;;;;;;;;;;19.50;78.70;;;;;;5065266;28;19919;-68
2022/09/05 02:04:52;;;;;;;;;;;19.50;78.60;;;;;;5068030;28;19962;-66
2022/09/05 02:07:21;;;;;;;;;;;19.50;78.60;;;;;;5067685;28;19916;-66
2022/09/05 02:10:02;;;;;;;;;;;19.50;78.60;;;;;;5068135;28;19952;-66
2022/09/05 02:12:33;;;;;;;;;;;19.50;78.70;;;;;;5061789;28;20556;-66
2022/09/05 02:15:19;;;;;;;;;;;19.50;78.60;;;;;;5068086;28;19947;-66
2022/09/05 02:17:49;;;;;;;;;;;19.50;78.70;;;;;;5053990;28;20011;-66
2022/09/05 02:20:19;;;;;;;;;;;19.50;78.60;;;;;;5067827;28;19917;-66
2022/09/05 02:22:52;;;;;;;;;;;19.40;78.50;;;;;;5067689;28;20316;-66
2022/09/05 02:25:23;;;;;;;;;;;19.40;78.40;;;;;;5068087;28;19912;-66
2022/09/05 02:27:55;;;;;;;;;;;19.40;78.50;;;;;;5061691;28;19916;-66
2022/09/05 02:30:22;;;;;;;;;;;19.40;78.60;;;;;;5066868;28;19948;-65
2022/09/05 02:32:53;;;;;;;;;;;19.40;78.50;;;;;;5066991;28;19955;-65
2022/09/05 02:35:42;;;;;;;;;;;19.40;78.60;;;;;;5060536;28;19999;-66
2022/09/05 02:38:17;;;;;;;;;;;19.40;78.60;;;;;;5031573;28;19923;-66
2022/09/05 02:40:46;;;;;;;;;;;19.40;78.70;;;;;;5049309;28;19912;-66
2022/09/05 02:43:21;;;;;;;;;;;19.40;78.90;;;;;;5067089;28;20479;-66
2022/09/05 02:45:52;;;;;;;;;;;19.40;78.80;;;;;;5066572;28;19951;-66
2022/09/05 02:48:18;;;;;;;;;;;19.40;78.70;;;;;;5067524;28;19923;-66
2022/09/05 02:50:56;;;;;;;;;;;19.40;78.70;;;;;;5066812;28;19912;-66
2022/09/05 02:53:22;;;;;;;;;;;19.40;78.90;;;;;;5066872;28;19924;-66
2022/09/05 02:55:47;;;;;;;;;;;19.40;78.90;;;;;;5067342;28;19919;-66
2022/09/05 02:58:27;;;;;;;;;;;19.40;79.00;;;;;;5067057;28;19912;-66
2022/09/05 03:00:59;;;;;;;;;;;19.40;79.00;;;;;;5066623;28;20011;-66
2022/09/05 03:03:35;;;;;;;;;;;19.30;79.00;;;;;;5066362;28;19916;-66
2022/09/05 03:06:16;;;;;;;;;;;19.40;79.00;;;;;;5066347;28;19912;-66
2022/09/05 03:08:57;;;;;;;;;;;19.40;79.20;;;;;;5066591;28;20003;-66
2022/09/05 03:11:28;;;;;;;;;;;19.40;79.20;;;;;;5066736;28;19913;-66
2022/09/05 03:14:08;;;;;;;;;;;19.40;79.20;;;;;;5066981;28;19908;-66
2022/09/05 03:16:52;;;;;;;;;;;19.30;79.20;;;;;;5066776;28;19912;-66
2022/09/05 03:19:30;;;;;;;;;;;19.30;79.40;;;;;;5064395;28;19921;-66
2022/09/05 03:22:19;;;;;;;;;;;19.30;79.30;;;;;;5067261;28;20269;-66
2022/09/05 03:24:51;;;;;;;;;;;19.30;79.30;;;;;;5062167;28;20017;-66
2022/09/05 03:27:17;;;;;;;;;;;19.30;79.40;;;;;;5062290;28;19913;-66
2022/09/05 03:30:01;;;;;;;;;;;19.30;79.30;;;;;;5066686;28;19912;-66
2022/09/05 03:33:02;;;;;;;;;;;19.30;79.30;;;;;;5066005;28;19923;-66
2022/09/05 03:35:30;;;;;;;;;;;19.30;79.80;;;;;;4984486;28;19913;-66
2022/09/05 03:38:14;;;;;;;;;;;19.30;79.60;;;;;;5032775;28;19912;-66
2022/09/05 03:40:42;;;;;;;;;;;19.20;79.50;;;;;;5065033;28;20419;-66
2022/09/05 03:43:28;;;;;;;;;;;19.30;79.70;;;;;;5067205;28;20480;-66
2022/09/05 03:46:00;;;;;;;;;;;19.30;80.20;;;;;;5066041;28;19916;-66
2022/09/05 03:48:28;;;;;;;;;;;19.20;79.60;;;;;;5066238;28;20029;-66
2022/09/05 03:51:03;;;;;;;;;;;19.20;79.60;;;;;;5066250;28;19957;-66
2022/09/05 03:53:51;;;;;;;;;;;19.20;79.50;;;;;;5065076;28;20147;-66
2022/09/05 03:56:20;;;;;;;;;;;19.20;79.50;;;;;;5065894;28;19913;-66
2022/09/05 03:58:48;;;;;;;;;;;19.20;79.40;;;;;;5065989;28;19920;-66
2022/09/05 04:01:18;;;;;;;;;;;19.20;79.50;;;;;;5065853;28;20404;-66
2022/09/05 04:03:52;;;;;;;;;;;19.20;79.50;;;;;;5065458;28;19936;-66
2022/09/05 04:06:26;;;;;;;;;;;19.20;79.40;;;;;;5065661;28;19919;-66
2022/09/05 04:09:10;;;;;;;;;;;19.20;79.30;;;;;;5066026;28;19920;-65
2022/09/05 04:11:45;;;;;;;;;;;19.20;79.30;;;;;;5065740;28;20007;-66
2022/09/05 04:14:21;;;;;;;;;;;19.10;79.40;;;;;;5064841;28;19916;-66
2022/09/05 04:16:50;;;;;;;;;;;19.10;79.40;;;;;;5046376;28;19928;-66
2022/09/05 04:19:33;;;;;;;;;;;19.10;79.30;;;;;;5062884;28;20431;-66
2022/09/05 04:22:07;;;;;;;;;;;19.10;79.40;;;;;;5065540;28;19916;-66
2022/09/05 04:24:51;;;;;;;;;;;19.10;79.60;;;;;;5065708;28;19913;-66
2022/09/05 04:27:22;;;;;;;;;;;19.00;79.40;;;;;;5065192;28;19955;-66
2022/09/05 04:29:56;;;;;;;;;;;19.00;79.60;;;;;;5065430;28;20686;-66
2022/09/05 04:32:29;;;;;;;;;;;19.00;79.80;;;;;;5065129;28;19912;-66
2022/09/05 04:34:58;;;;;;;;;;;19.00;79.80;;;;;;5065544;28;19947;-66
2022/09/05 04:37:42;;;;;;;;;;;19.00;79.80;;;;;;5065408;28;20000;-66
2022/09/05 04:40:26;;;;;;;;;;;19.00;79.90;;;;;;5065510;28;19955;-66
2022/09/05 04:42:52;;;;;;;;;;;19.00;79.90;;;;;;5065276;28;20540;-66
2022/09/05 04:45:17;;;;;;;;;;;19.00;80.00;;;;;;5064782;28;20017;-66
2022/09/05 04:47:46;;;;;;;;;;;18.90;79.90;;;;;;5065187;28;19917;-66
2022/09/05 04:50:13;;;;;;;;;;;18.90;80.00;;;;;;5065142;28;19913;-66
2022/09/05 04:52:57;;;;;;;;;;;18.90;80.10;;;;;;5065038;28;19931;-66
2022/09/05 04:55:25;;;;;;;;;;;18.90;80.10;;;;;;5065398;28;20538;-66
2022/09/05 04:57:54;;;;;;;;;;;18.90;80.10;;;;;;5065427;28;20559;-66
2022/09/05 05:00:33;;;;;;;;;;;18.90;80.10;;;;;;5065614;28;19917;-66
2022/09/05 05:03:01;;;;;;;;;;;18.90;80.10;;;;;;5064641;28;19999;-66
2022/09/05 05:05:46;;;;;;;;;;;18.90;80.10;;;;;;5065492;28;19970;-66
2022/09/05 05:08:15;;;;;;;;;;;18.80;80.20;;;;;;5050794;28;19919;-66
2022/09/05 05:10:44;;;;;;;;;;;18.80;80.30;;;;;;5065286;28;20668;-66
2022/09/05 05:13:24;;;;;;;;;;;18.80;80.20;;;;;;5065423;28;20368;-66
2022/09/05 05:15:51;;;;;;;;;;;18.80;80.20;;;;;;5065321;28;19908;-66
2022/09/05 05:18:32;;;;;;;;;;;18.80;80.20;;;;;;5047278;28;19956;-66
2022/09/05 05:21:01;;;;;;;;;;;18.80;80.30;;;;;;5065233;28;20387;-66
2022/09/05 05:23:44;;;;;;;;;;;18.80;80.30;;;;;;5064885;28;19913;-66
2022/09/05 05:26:17;;;;;;;;;;;18.80;80.30;;;;;;5066595;28;19965;-66
2022/09/05 05:28:53;;;;;;;;;;;18.80;80.30;;;;;;5069148;28;20389;-67
2022/09/05 05:31:22;;;;;;;;;;;18.80;80.40;;;;;;5068665;28;19909;-66
2022/09/05 05:33:49;;;;;;;;;;;18.80;80.40;;;;;;5068074;28;20075;-66
2022/09/05 05:36:26;;;;;;;;;;;18.80;80.30;;;;;;5050618;28;20349;-66
2022/09/05 05:38:52;;;;;;;;;;;18.70;80.20;;;;;;5068507;28;19917;-67
2022/09/05 05:41:27;;;;;;;;;;;18.80;80.40;;;;;;5067955;28;20606;-67
2022/09/05 05:43:52;;;;;;;;;;;18.80;80.30;;;;;;5067740;28;19965;-68
2022/09/05 05:46:33;;;;;;;;;;;18.80;80.30;;;;;;5067059;28;19924;-67
2022/09/05 05:49:06;;;;;;;;;;;18.80;80.40;;;;;;5068148;28;20031;-66
2022/09/05 05:51:41;;;;;;;;;;;18.80;80.30;;;;;;5049985;28;19916;-66
2022/09/05 05:54:26;;;;;;;;;;;18.70;80.30;;;;;;5068668;28;19935;-66
2022/09/05 05:56:51;;;;;;;;;;;18.70;80.30;;;;;;5068182;28;19920;-66
2022/09/05 05:59:20;;;;;;;;;;;18.70;80.30;;;;;;5068284;28;20604;-66
2022/09/05 06:02:00;;;;;;;;;;;18.70;80.20;;;;;;5049718;28;19912;-66
2022/09/05 06:04:37;;;;;;;;;;;18.70;80.20;;;;;;5067190;28;19963;-66
2022/09/05 06:07:22;;;;;;;;;;;18.70;80.10;;;;;;5068041;28;19908;-66
2022/09/05 06:09:47;;;;;;;;;;;18.70;80.20;;;;;;5068206;28;19912;-66
2022/09/05 06:12:16;;;;;;;;;;;18.70;80.10;;;;;;5062804;28;19920;-66
2022/09/05 06:14:53;;;;;;;;;;;18.70;79.80;;;;;;5068074;28;20007;-66
2022/09/05 06:17:19;;;;;;;;;;;18.70;80.00;;;;;;5067995;28;19919;-66
2022/09/05 06:20:03;;;;;;;;;;;18.70;79.70;;;;;;5067233;28;19920;-66
2022/09/05 06:22:29;;;;;;;;;;;18.70;79.50;;;;;;5067539;28;19916;-66
2022/09/05 06:25:14;;;;;;;;;;;18.70;79.40;;;;;;5067764;28;20642;-66
2022/09/05 06:28:01;;;;;;;;;;;18.70;79.30;;;;;;5067650;28;19919;-66
2022/09/05 06:30:28;;;;;;;;;;;18.80;79.10;;;;;;5062653;28;19917;-66
2022/09/05 06:33:05;;;;;;;;;;;18.80;79.10;;;;;;5067447;28;19908;-66
2022/09/05 06:35:45;;;;;;;;;;;18.80;79.00;;;;;;5067693;28;19923;-66
2022/09/05 06:38:25;;;;;;;;;;;18.80;78.90;;;;;;5066866;28;19981;-66
2022/09/05 06:41:12;;;;;;;;;;;18.80;78.80;;;;;;5065823;28;19912;-66
2022/09/05 06:43:58;;;;;;;;;;;18.80;78.80;;;;;;5067309;28;19921;-66
2022/09/05 06:46:34;;;;;;;;;;;18.80;78.70;;;;;;5067761;28;19948;-66
2022/09/05 06:49:18;;;;;;;;;;;18.80;78.50;;;;;;5071002;28;19909;-66
2022/09/05 06:51:43;;;;;;;;;;;18.80;78.40;;;;;;5065916;28;20426;-66
2022/09/05 06:54:12;;;;;;;;;;;18.90;78.40;;;;;;5066169;28;19912;-66
2022/09/05 06:56:56;;;;;;;;;;;18.90;78.30;;;;;;5066184;28;19917;-66
2022/09/05 06:59:45;;;;;;;;;;;18.90;78.30;;;;;;5067375;28;19917;-66
2022/09/05 07:02:17;;;;;;;;;;;18.90;78.20;;;;;;5065400;28;19920;-66
2022/09/05 07:04:47;;;;;;;;;;;18.90;78.20;;;;;;5066320;28;20305;-66
2022/09/05 07:07:12;;;;;;;;;;;18.90;78.30;;;;;;5066065;28;19999;-66
2022/09/05 07:09:44;;;;;;;;;;;18.90;78.20;;;;;;5065665;28;20011;-66
2022/09/05 07:12:13;;;;;;;;;;;18.90;78.10;;;;;;5061973;28;19908;-66
2022/09/05 07:15:01;;;;;;;;;;;18.90;78.10;;;;;;5060341;28;19921;-66
2022/09/05 07:17:38;;;;;;;;;;;18.90;77.90;;;;;;5055777;28;19922;-66
2022/09/05 07:20:12;;;;;;;;;;;18.90;78.00;;;;;;5066572;28;19916;-66
2022/09/05 07:23:04;;;;;;;;;;;19.00;77.90;;;;;;5066265;28;19916;-66
2022/09/05 07:25:30;;;;;;;;;;;19.00;77.80;;;;;;5059302;28;19916;-66
2022/09/05 07:27:59;;;;;;;;;;;19.00;77.60;;;;;;5066523;28;19913;-66
2022/09/05 07:30:25;;;;;;;;;;;19.00;77.60;;;;;;5066144;28;19912;-66
2022/09/05 07:32:52;;;;;;;;;;;19.00;77.40;;;;;;5066286;28;19934;-66
2022/09/05 07:35:24;;;;;;;;;;;19.10;77.40;;;;;;5066292;28;19916;-66
2022/09/05 07:37:58;;;;;;;;;;;19.10;77.40;;;;;;5066201;28;19967;-66
2022/09/05 07:40:24;;;;;;;;;;;19.10;77.30;;;;;;5065885;28;19942;-66
2022/09/05 07:43:11;;;;;;;;;;;19.20;77.10;;;;;;5065584;28;20619;-66
2022/09/05 07:45:42;;;;;;;;;;;19.20;77.00;;;;;;5065939;28;20468;-66
2022/09/05 07:48:10;;;;;;;;;;;19.30;77.10;;;;;;5066028;28;19916;-66
2022/09/05 07:51:02;;;;;;;;;;;19.30;77.00;;;;;;5065657;28;19912;-66
2022/09/05 07:53:28;;;;;;;;;;;19.30;77.60;;;;;;5061516;28;19917;-66
2022/09/05 07:55:58;;;;;;;;;;;19.30;76.90;;;;;;5065458;28;19917;-66
2022/09/05 07:58:32;;;;;;;;;;;19.40;76.70;;;;;;5065959;28;20350;-66
2022/09/05 08:00:58;;;;;;;;;;;19.40;76.50;;;;;;5047531;28;19912;-66
2022/09/05 08:03:25;;;;;;;;;;;19.50;76.50;;;;;;5065339;28;19939;-66
2022/09/05 08:05:53;;;;;;;;;;;19.50;76.40;;;;;;5065527;28;19918;-66
2022/09/05 08:08:21;;;;;;;;;;;19.50;76.60;;;;;;5065327;28;19919;-66
2022/09/05 08:10:52;;;;;;;;;;;19.60;76.40;;;;;;5063229;28;20385;-66
2022/09/05 08:13:20;;;;;;;;;;;19.60;76.40;;;;;;5065712;28;19917;-66
2022/09/05 08:15:48;;;;;;;;;;;19.70;76.30;;;;;;5065926;28;19967;-66
2022/09/05 08:18:13;;;;;;;;;;;19.70;76.20;;;;;;5047796;28;19966;-66
2022/09/05 08:20:46;;;;;;;;;;;19.80;76.10;;;;;;5064253;28;19912;-66
2022/09/05 08:23:17;;;;;;;;;;;19.80;76.40;;;;;;5065938;28;19938;-66
2022/09/05 08:25:53;;;;;;;;;;;19.80;76.00;;;;;;5065820;28;19912;-66
2022/09/05 08:28:27;;;;;;;;;;;19.90;75.70;;;;;;5065864;28;19917;-66
2022/09/05 08:31:13;;;;;;;;;;;20.00;75.70;;;;;;5065767;28;19915;-66
2022/09/05 08:33:39;;;;;;;;;;;20.00;75.80;;;;;;5062533;28;19979;-66
2022/09/05 08:36:04;;;;;;;;;;;20.10;75.50;;;;;;5065444;28;19996;-66
2022/09/05 08:38:32;;;;;;;;;;;20.20;75.80;;;;;;5065820;28;19950;-66
2022/09/05 08:41:17;;;;;;;;;;;20.20;75.60;;;;;;5065606;28;19912;-66
2022/09/05 08:44:01;;;;;;;;;;;20.30;75.30;;;;;;5023674;28;19928;-66
2022/09/05 08:46:31;;;;;;;;;;;20.30;75.10;;;;;;5065447;28;19956;-66
2022/09/05 08:49:00;;;;;;;;;;;20.40;74.90;;;;;;5065636;28;19920;-66
2022/09/05 08:51:25;;;;;;;;;;;20.50;74.80;;;;;;5065024;28;19916;-66
2022/09/05 08:54:09;;;;;;;;;;;20.50;74.60;;;;;;5065334;28;19913;-66
2022/09/05 08:56:40;;;;;;;;;;;20.60;74.40;;;;;;5047225;28;20492;-66
2022/09/05 08:59:18;;;;;;;;;;;20.60;74.30;;;;;;5065553;28;19962;-66
2022/09/05 09:01:55;;;;;;;;;;;20.70;74.20;;;;;;5067597;28;19966;-66
2022/09/05 09:04:33;;;;;;;;;;;20.70;74.10;;;;;;5069067;28;19912;-66
2022/09/05 09:07:04;;;;;;;;;;;20.80;74.00;;;;;;5069130;28;19917;-66
2022/09/05 09:09:37;;;;;;;;;;;20.80;73.80;;;;;;5069094;28;19954;-66
2022/09/05 09:12:12;;;;;;;;;;;20.80;73.80;;;;;;5062388;28;19912;-66
2022/09/05 09:14:50;;;;;;;;;;;20.90;73.50;;;;;;5068807;28;20015;-66
2022/09/05 09:17:18;;;;;;;;;;;21.00;73.50;;;;;;5068588;28;19917;-66
2022/09/05 09:19:53;;;;;;;;;;;21.00;73.30;;;;;;5068880;28;19920;-66
2022/09/05 09:22:21;;;;;;;;;;;21.00;73.10;;;;;;5068221;28;19917;-69
2022/09/05 09:24:49;;;;;;;;;;;21.10;73.00;;;;;;5068225;28;20250;-66
2022/09/05 09:27:33;;;;;;;;;;;21.20;73.00;;;;;;5068546;28;19913;-66
2022/09/05 09:30:02;;;;;;;;;;;21.20;72.70;;;;;;5068600;28;19917;-66
2022/09/05 09:32:29;;;;;;;;;;;21.30;72.50;;;;;;5068727;28;20427;-66
2022/09/05 09:35:00;;;;;;;;;;;21.30;72.40;;;;;;5050520;28;19913;-66
2022/09/05 09:37:31;;;;;;;;;;;21.30;72.20;;;;;;5068591;28;19982;-66
2022/09/05 09:40:15;;;;;;;;;;;21.40;72.10;;;;;;5068310;28;19931;-66
2022/09/05 09:43:00;;;;;;;;;;;21.40;72.00;;;;;;5068192;28;19913;-66
2022/09/05 09:45:34;;;;;;;;;;;21.50;71.90;;;;;;5068578;28;19927;-66
2022/09/05 09:47:59;;;;;;;;;;;21.60;71.70;;;;;;5068377;28;19909;-66
2022/09/05 09:50:44;;;;;;;;;;;21.60;71.60;;;;;;5067418;28;19966;-66
2022/09/05 09:53:18;;;;;;;;;;;21.70;71.30;;;;;;5068531;28;19909;-66
2022/09/05 09:55:47;;;;;;;;;;;21.70;71.20;;;;;;5063188;28;19912;-66
2022/09/05 09:58:12;;;;;;;;;;;21.70;71.00;;;;;;5068468;28;20326;-66
2022/09/05 10:00:49;;;;;;;;;;;21.80;71.00;;;;;;5067865;28;20019;-66
2022/09/05 10:03:39;;;;;;;;;;;21.90;70.90;;;;;;5067886;28;19908;-66
2022/09/05 10:06:31;;;;;;;;;;;21.90;70.60;;;;;;5067314;28;19916;-66
2022/09/05 10:09:09;;;;;;;;;;;22.00;70.40;;;;;;5063013;28;20685;-66
2022/09/05 10:11:53;;;;;;;;;;;22.10;70.20;;;;;;5067250;28;19912;-66
2022/09/05 10:14:32;;;;;;;;;;;22.20;70.10;;;;;;5067949;28;19962;-66
2022/09/05 10:17:16;;;;;;;;;;;22.20;69.90;;;;;;5067803;28;19912;-66
2022/09/05 10:19:55;;;;;;;;;;;22.20;70.00;;;;;;5067871;28;20304;-66
2022/09/05 10:22:44;;;;;;;;;;;22.30;70.10;;;;;;5067233;28;19944;-66
2022/09/05 10:25:36;;;;;;;;;;;22.40;69.60;;;;;;5042401;28;19983;-66
2022/09/05 10:28:20;;;;;;;;;;;22.50;69.40;;;;;;5063063;28;19912;-66
2022/09/05 10:30:51;;;;;;;;;;;22.60;69.40;;;;;;5048609;28;20304;-66
2022/09/05 10:33:28;;;;;;;;;;;22.60;69.70;;;;;;5065067;28;19994;-66
2022/09/05 10:36:20;;;;;;;;;;;22.70;69.60;;;;;;5067391;28;19919;-66
2022/09/05 10:38:50;;;;;;;;;;;22.70;69.50;;;;;;5067070;28;20564;-66
2022/09/05 10:41:18;;;;;;;;;;;22.80;69.50;;;;;;5066847;28;20028;-66
2022/09/05 10:43:43;;;;;;;;;;;22.90;69.60;;;;;;5067403;28;19920;-67
2022/09/05 10:46:12;;;;;;;;;;;22.90;69.40;;;;;;5067186;28;19912;-66
2022/09/05 10:48:43;;;;;;;;;;;22.90;70.20;;;;;;5067320;28;20000;-66
2022/09/05 10:51:20;;;;;;;;;;;22.90;70.50;;;;;;5067194;28;19978;-66
2022/09/05 10:54:00;;;;;;;;;;;23.00;70.00;;;;;;5066962;28;19916;-66
2022/09/05 10:56:28;;;;;;;;;;;23.10;69.70;;;;;;5061097;28;20662;-66
2022/09/05 10:58:59;;;;;;;;;;;23.30;70.00;;;;;;5066895;28;19916;-66
2022/09/05 11:01:32;;;;;;;;;;;23.40;69.70;;;;;;5066636;28;19934;-66
2022/09/05 11:03:58;;;;;;;;;;;23.50;70.40;;;;;;5067369;28;19913;-66
2022/09/05 11:06:41;;;;;;;;;;;23.70;69.20;;;;;;5049279;28;19951;-66
2022/09/05 11:09:15;;;;;;;;;;;23.70;69.30;;;;;;5066873;28;19913;-66
2022/09/05 11:11:49;;;;;;;;;;;23.90;69.70;;;;;;5066784;28;19913;-66
2022/09/05 11:14:27;;;;;;;;;;;24.00;69.20;;;;;;5048924;28;20284;-66
2022/09/05 11:16:57;;;;;;;;;;;24.10;69.20;;;;;;5066518;28;19909;-66
2022/09/05 11:19:38;;;;;;;;;;;24.30;69.50;;;;;;5066670;28;19916;-66
2022/09/05 11:22:06;;;;;;;;;;;24.40;69.60;;;;;;5066484;28;19962;-66
2022/09/05 11:24:31;;;;;;;;;;;24.50;69.60;;;;;;5066212;28;19951;-66
2022/09/05 11:27:03;;;;;;;;;;;24.60;69.70;;;;;;5066332;28;19917;-66
2022/09/05 11:29:47;;;;;;;;;;;24.70;69.40;;;;;;5066752;28;19917;-66
2022/09/05 11:32:32;;;;;;;;;;;24.70;69.50;;;;;;5063222;28;20580;-66
2022/09/05 11:34:57;;;;;;;;;;;24.90;69.30;;;;;;5063760;28;20372;-66
2022/09/05 11:37:26;;;;;;;;;;;25.00;69.30;;;;;;5059824;28;19913;-66
2022/09/05 11:39:54;;;;;;;;;;;25.10;69.40;;;;;;5066665;28;19916;-66
2022/09/05 11:42:20;;;;;;;;;;;25.20;69.60;;;;;;5065967;28;20281;-66
2022/09/05 11:44:46;;;;;;;;;;;25.30;69.70;;;;;;5066797;28;19917;-66
2022/09/05 11:47:13;;;;;;;;;;;25.40;69.10;;;;;;5066059;28;19912;-67
2022/09/05 11:49:57;;;;;;;;;;;25.50;69.00;;;;;;5046543;28;20014;-66
2022/09/05 11:52:22;;;;;;;;;;;25.60;68.70;;;;;;5065744;28;19913;-66
2022/09/05 11:55:07;;;;;;;;;;;25.60;68.70;;;;;;5066056;28;19998;-66
2022/09/05 11:57:51;;;;;;;;;;;25.70;68.70;;;;;;5065905;28;20412;-66
2022/09/05 12:00:18;;;;;;;;;;;25.80;68.30;;;;;;5065407;28;19923;-66
2022/09/05 12:02:43;;;;;;;;;;;25.80;68.30;;;;;;5061186;28;19987;-66
2022/09/05 12:05:33;;;;;;;;;;;25.90;68.60;;;;;;5064804;28;20001;-66
2022/09/05 12:08:22;;;;;;;;;;;25.90;68.50;;;;;;5064791;28;20258;-66
2022/09/05 12:11:02;;;;;;;;;;;25.90;68.50;;;;;;5064147;28;19913;-66
2022/09/05 12:13:30;;;;;;;;;;;26.10;68.40;;;;;;5065386;28;19999;-66
2022/09/05 12:16:00;;;;;;;;;;;26.20;68.50;;;;;;5064506;28;19916;-66
2022/09/05 12:18:27;;;;;;;;;;;26.20;68.60;;;;;;5064649;28;20405;-66
2022/09/05 12:21:02;;;;;;;;;;;26.30;68.70;;;;;;5064208;28;19966;-66
2022/09/05 12:23:42;;;;;;;;;;;26.30;68.40;;;;;;5063858;28;19923;-66
2022/09/05 12:26:12;;;;;;;;;;;26.40;68.50;;;;;;5060172;28;19954;-66
2022/09/05 12:28:43;;;;;;;;;;;26.50;68.40;;;;;;5063631;28;19939;-66
2022/09/05 12:31:14;;;;;;;;;;;26.50;68.10;;;;;;5064297;28;20283;-66
2022/09/05 12:33:42;;;;;;;;;;;26.60;68.00;;;;;;5046135;28;20582;-66
2022/09/05 12:36:12;;;;;;;;;;;26.60;67.90;;;;;;5063293;28;19912;-66
2022/09/05 12:38:43;;;;;;;;;;;26.70;67.90;;;;;;5065710;28;19920;-66
2022/09/05 12:41:17;;;;;;;;;;;26.80;67.70;;;;;;5065415;28;19915;-66
2022/09/05 12:44:10;;;;;;;;;;;26.80;67.30;;;;;;5065374;28;19920;-66
2022/09/05 12:46:44;;;;;;;;;;;26.90;67.50;;;;;;5034559;28;19927;-66
2022/09/05 12:49:17;;;;;;;;;;;26.90;67.60;;;;;;5065149;28;19916;-66
2022/09/05 12:51:52;;;;;;;;;;;27.00;67.70;;;;;;5065235;28;19909;-66
2022/09/05 12:54:32;;;;;;;;;;;27.00;67.40;;;;;;5065405;28;20285;-66
2022/09/05 12:57:00;;;;;;;;;;;27.10;67.60;;;;;;5065871;28;19912;-66
2022/09/05 12:59:27;;;;;;;;;;;27.20;68.10;;;;;;5065745;28;20759;-66
2022/09/05 13:02:06;;;;;;;;;;;27.20;68.30;;;;;;5064683;28;19916;-66
2022/09/05 13:04:40;;;;;;;;;;;27.30;68.50;;;;;;5053811;28;19970;-66
2022/09/05 13:07:11;;;;;;;;;;;27.30;68.40;;;;;;5059602;28;19916;-66
2022/09/05 13:09:37;;;;;;;;;;;27.40;68.20;;;;;;5065441;28;19920;-66
2022/09/05 13:12:26;;;;;;;;;;;27.40;68.50;;;;;;5065080;28;20427;-67
2022/09/05 13:14:57;;;;;;;;;;;27.50;68.30;;;;;;5066472;28;20437;-66
2022/09/05 13:17:29;;;;;;;;;;;27.50;68.40;;;;;;5065531;28;19947;-67
2022/09/05 13:19:56;;;;;;;;;;;27.60;68.10;;;;;;5064234;28;19968;-66
2022/09/05 13:22:22;;;;;;;;;;;27.70;68.30;;;;;;5064090;28;19916;-66
2022/09/05 13:24:49;;;;;;;;;;;27.70;68.20;;;;;;5064418;28;19912;-66
2022/09/05 13:27:20;;;;;;;;;;;27.80;68.00;;;;;;5064660;28;19919;-66
2022/09/05 13:29:52;;;;;;;;;;;27.80;68.00;;;;;;5063014;28;19916;-67
2022/09/05 13:32:24;;;;;;;;;;;27.90;68.00;;;;;;5064145;28;20041;-67
2022/09/05 13:34:55;;;;;;;;;;;27.90;67.10;;;;;;5063825;28;19966;-66
2022/09/05 13:37:29;;;;;;;;;;;27.90;67.30;;;;;;5046628;28;19951;-66
2022/09/05 13:40:00;;;;;;;;;;;28.00;66.70;;;;;;5065358;28;20444;-66
2022/09/05 13:42:29;;;;;;;;;;;28.10;66.80;;;;;;5064543;28;19920;-66
2022/09/05 13:44:56;;;;;;;;;;;28.10;67.10;;;;;;5064960;28;19922;-66
2022/09/05 13:47:45;;;;;;;;;;;28.10;66.70;;;;;;5066569;28;20007;-66
2022/09/05 13:50:28;;;;;;;;;;;28.20;66.60;;;;;;5056471;28;20330;-66
2022/09/05 13:52:56;;;;;;;;;;;28.20;66.30;;;;;;5065835;28;19912;-66
2022/09/05 13:55:27;;;;;;;;;;;28.30;66.00;;;;;;5068322;28;19935;-66
2022/09/05 13:58:06;;;;;;;;;;;28.30;65.80;;;;;;5067221;28;19933;-66
2022/09/05 14:00:34;;;;;;;;;;;28.30;65.60;;;;;;5061900;28;19921;-66
2022/09/05 14:03:07;;;;;;;;;;;28.40;65.10;;;;;;5049741;28;19920;-66
2022/09/05 14:05:32;;;;;;;;;;;28.40;65.50;;;;;;5067958;28;20632;-67
2022/09/05 14:08:16;;;;;;;;;;;28.40;65.30;;;;;;5066924;28;19917;-66
2022/09/05 14:10:50;;;;;;;;;;;28.40;65.30;;;;;;5068491;28;19920;-66
2022/09/05 14:13:22;;;;;;;;;;;28.40;64.60;;;;;;5068613;28;19966;-66
2022/09/05 14:15:53;;;;;;;;;;;28.40;64.00;;;;;;5067698;28;19920;-66
2022/09/05 14:18:26;;;;;;;;;;;28.50;64.50;;;;;;5067906;28;19916;-66
2022/09/05 14:23:52;;;;;;;;;;;28.50;64.30;;;;;;5067579;28;20692;-66
2022/09/05 14:26:32;;;;;;;;;;;28.50;64.20;;;;;;5066696;28;20475;-66
2022/09/05 14:28:57;;;;;;;;;;;28.50;64.40;;;;;;5066333;28;19912;-66
2022/09/05 14:31:28;;;;;;;;;;;28.50;63.10;;;;;;5065986;28;19965;-66
2022/09/05 14:34:08;;;;;;;;;;;28.40;63.90;;;;;;5067056;28;19912;-66
2022/09/05 14:36:45;;;;;;;;;;;28.30;64.20;;;;;;5067677;28;19966;-66
2022/09/05 14:39:28;;;;;;;;;;;28.30;64.80;;;;;;5066098;28;19913;-66
2022/09/05 14:42:02;;;;;;;;;;;28.20;65.30;;;;;;5067825;28;19966;-66
2022/09/05 14:44:35;;;;;;;;;;;28.10;65.70;;;;;;5049702;28;19944;-66
2022/09/05 14:47:12;;;;;;;;;;;28.10;66.00;;;;;;5066922;28;19939;-66
2022/09/05 14:50:02;;;;;;;;;;;28.20;66.20;;;;;;5066968;28;20344;-66
2022/09/05 14:52:29;;;;;;;;;;;28.40;62.80;;;;;;5055125;28;19912;-66
2022/09/05 14:54:56;;;;;;;;;;;28.60;62.50;;;;;;5067233;28;19913;-66
2022/09/05 14:57:23;;;;;;;;;;;28.80;62.10;;;;;;5067337;28;19919;-66
2022/09/05 14:59:52;;;;;;;;;;;28.90;61.70;;;;;;5066510;28;19920;-66